Time;durP1;ratioP1;P1;durP2;ratioP2;P2;SDS_P1;SDS_P2;PMS_P1;PMS_P2;Temp;Humidity;BMP_temperature;BMP_pressure;BME280_temperature;BME280_humidity;BME280_pressure;Samples;Min_cycle;Max_cycle;Signal;HPM_P1;HPM_P2
2021/03/05 00:02:11;;;;;;;19.13;13.73;;;5.80;99.90;;;;;;5054996;28;20187;-82
2021/03/05 00:04:37;;;;;;;19.40;13.93;;;5.60;99.90;;;;;;5054969;28;20266;-82
2021/03/05 00:07:02;;;;;;;21.70;15.67;;;5.50;99.90;;;;;;5054916;28;20179;-83
2021/03/05 00:09:28;;;;;;;13.93;10.67;;;5.50;99.90;;;;;;5055000;28;20178;-82
2021/03/05 00:11:53;;;;;;;26.67;18.70;;;5.40;99.90;;;;;;5073734;28;20639;-82
2021/03/05 00:14:19;;;;;;;19.47;14.67;;;5.30;99.90;;;;;;5072617;28;20509;-82
2021/03/05 00:16:45;;;;;;;20.00;14.93;;;5.20;99.90;;;;;;5054457;28;20326;-82
2021/03/05 00:19:10;;;;;;;27.00;17.63;;;5.20;99.90;;;;;;5072806;28;20183;-82
2021/03/05 00:21:36;;;;;;;17.73;15.10;;;5.10;99.90;;;;;;5054565;28;20190;-82
2021/03/05 00:24:02;;;;;;;36.07;23.53;;;5.00;99.90;;;;;;5054348;28;20320;-82
2021/03/05 00:26:27;;;;;;;25.90;17.67;;;5.00;99.90;;;;;;5054299;28;20266;-82
2021/03/05 00:28:53;;;;;;;30.50;20.20;;;5.00;99.90;;;;;;5054232;28;20910;-82
2021/03/05 00:31:19;;;;;;;39.20;28.87;;;4.90;99.90;;;;;;5072291;28;20273;-82
2021/03/05 00:33:45;;;;;;;38.20;27.00;;;4.90;99.90;;;;;;5054277;28;20623;-82
2021/03/05 00:36:10;;;;;;;35.37;23.57;;;4.90;99.90;;;;;;5054145;28;20440;-81
2021/03/05 00:38:36;;;;;;;41.50;25.50;;;4.80;99.90;;;;;;5072143;28;20708;-82
2021/03/05 00:41:01;;;;;;;33.27;22.13;;;4.90;99.90;;;;;;5054125;28;20657;-82
2021/03/05 00:43:27;;;;;;;37.23;24.87;;;4.90;99.90;;;;;;5054054;28;20187;-82
2021/03/05 00:45:52;;;;;;;26.93;18.70;;;4.70;99.90;;;;;;5072086;28;20258;-81
2021/03/05 00:48:18;;;;;;;34.73;22.97;;;4.50;99.90;;;;;;5054102;28;20194;-82
2021/03/05 00:50:44;;;;;;;33.83;20.13;;;4.50;99.90;;;;;;5054255;28;20179;-82
2021/03/05 00:53:09;;;;;;;33.40;23.10;;;4.50;99.90;;;;;;5055209;28;20422;-82
2021/03/05 00:55:35;;;;;;;45.73;27.27;;;4.50;99.90;;;;;;5054144;28;20183;-82
2021/03/05 00:58:01;;;;;;;33.73;23.23;;;4.50;99.90;;;;;;5053465;28;20214;-82
2021/03/05 01:00:27;;;;;;;31.37;20.57;;;4.40;99.90;;;;;;5072272;28;20179;-82
2021/03/05 01:02:52;;;;;;;43.03;27.63;;;4.40;99.90;;;;;;5053739;28;20179;-82
2021/03/05 01:05:18;;;;;;;22.50;15.03;;;4.30;99.90;;;;;;5055626;28;20925;-82
2021/03/05 01:07:44;;;;;;;36.30;20.83;;;4.40;99.90;;;;;;5057789;28;20225;-82
2021/03/05 01:10:10;;;;;;;38.80;25.00;;;4.30;99.90;;;;;;5057966;28;20182;-82
2021/03/05 01:12:36;;;;;;;43.40;23.07;;;4.40;99.90;;;;;;5057836;28;20543;-82
2021/03/05 01:15:04;;;;;;;30.77;18.37;;;4.30;99.90;;;;;;5057957;28;20500;-82
2021/03/05 01:17:29;;;;;;;34.57;23.40;;;4.30;99.90;;;;;;5057678;28;20268;-82
2021/03/05 01:19:55;;;;;;;35.77;22.27;;;4.20;99.90;;;;;;5057743;28;20413;-82
2021/03/05 01:22:21;;;;;;;44.83;24.87;;;4.20;99.90;;;;;;5057725;28;20185;-82
2021/03/05 01:24:46;;;;;;;23.90;14.67;;;4.20;99.90;;;;;;5057818;28;20366;-82
2021/03/05 01:27:12;;;;;;;35.40;20.23;;;4.30;99.90;;;;;;5075895;28;20171;-82
2021/03/05 01:29:37;;;;;;;40.70;23.83;;;4.40;99.90;;;;;;5058148;28;20175;-82
2021/03/05 01:32:03;;;;;;;50.50;23.53;;;4.30;99.90;;;;;;5060207;28;20257;-82
2021/03/05 01:34:29;;;;;;;41.40;25.00;;;4.20;99.90;;;;;;5058441;28;20183;-82
2021/03/05 01:36:55;;;;;;;31.50;17.20;;;4.20;99.90;;;;;;5057525;28;20537;-82
2021/03/05 01:39:20;;;;;;;29.43;18.43;;;4.30;99.90;;;;;;5074658;28;20182;-82
2021/03/05 01:41:46;;;;;;;37.27;20.80;;;4.30;99.90;;;;;;5057656;28;20258;-82
2021/03/05 01:44:14;;;;;;;26.90;16.20;;;4.20;99.90;;;;;;5075503;28;20171;-82
2021/03/05 01:46:39;;;;;;;32.00;20.43;;;4.30;99.90;;;;;;5057425;28;20171;-82
2021/03/05 01:49:05;;;;;;;39.40;24.90;;;4.30;99.90;;;;;;5057232;28;20436;-82
2021/03/05 01:51:33;;;;;;;35.93;23.97;;;4.20;99.90;;;;;;5057282;28;20270;-82
2021/03/05 01:53:59;;;;;;;36.60;24.43;;;4.20;99.90;;;;;;5057490;28;20417;-79
2021/03/05 01:56:31;;;;;;;38.50;22.90;;;4.30;99.90;;;;;;5075117;28;20785;-82
2021/03/05 01:58:58;;;;;;;24.63;14.87;;;4.20;99.90;;;;;;5074574;28;20305;-82
2021/03/05 02:01:25;;;;;;;39.10;25.10;;;4.20;99.90;;;;;;5055877;28;20765;-82
2021/03/05 02:03:52;;;;;;;25.53;14.80;;;3.90;99.90;;;;;;5074011;28;20427;-82
2021/03/05 02:06:19;;;;;;;21.43;13.43;;;4.10;99.90;;;;;;5056065;28;20989;-82
2021/03/05 02:08:45;;;;;;;36.80;21.17;;;4.00;99.90;;;;;;5057929;28;20540;-82
2021/03/05 02:11:10;;;;;;;40.33;24.03;;;4.00;99.90;;;;;;5056447;28;20421;-83
2021/03/05 02:13:36;;;;;;;28.80;17.97;;;4.10;99.90;;;;;;5074465;28;20504;-82
2021/03/05 02:16:13;;;;;;;27.60;16.07;;;4.10;99.90;;;;;;5056458;28;20524;-82
2021/03/05 02:19:08;;;;;;;32.13;18.17;;;4.20;99.90;;;;;;5055147;28;20246;-82
2021/03/05 02:21:57;;;;;;;39.20;23.93;;;4.20;99.90;;;;;;5055585;28;20408;-82
2021/03/05 02:24:41;;;;;;;36.13;22.37;;;4.20;99.90;;;;;;5055597;28;20916;-82
2021/03/05 02:27:51;;;;;;;35.83;23.17;;;4.20;99.90;;;;;;5074628;28;20417;-82
2021/03/05 02:30:44;;;;;;;35.57;24.00;;;4.20;99.90;;;;;;4995640;28;20436;-82
2021/03/05 02:33:49;;;;;;;23.70;15.70;;;4.10;99.90;;;;;;5054359;28;20449;-82
2021/03/05 02:36:23;;;;;;;23.13;15.20;;;4.10;99.90;;;;;;5018832;28;20573;-82
2021/03/05 02:39:03;;;;;;;18.97;13.83;;;4.00;99.90;;;;;;5048548;28;20445;-82
2021/03/05 02:41:30;;;;;;;39.97;24.70;;;3.90;99.90;;;;;;5055278;28;20430;-82
2021/03/05 02:43:58;;;;;;;42.10;23.80;;;4.00;99.90;;;;;;5055144;28;20436;-82
2021/03/05 02:46:25;;;;;;;30.27;16.40;;;3.60;99.90;;;;;;5054991;28;20439;-82
2021/03/05 02:48:53;;;;;;;27.83;15.43;;;4.00;99.90;;;;;;5054743;28;20425;-82
2021/03/05 02:51:20;;;;;;;24.57;14.73;;;3.80;99.90;;;;;;5054911;28;20422;-82
2021/03/05 02:53:47;;;;;;;34.87;23.57;;;3.80;99.90;;;;;;5054885;28;20424;-82
2021/03/05 02:56:23;;;;;;;27.37;19.10;;;3.80;99.90;;;;;;5055004;28;20468;-82
2021/03/05 02:58:52;;;;;;;41.20;25.13;;;3.80;99.90;;;;;;5032751;28;641187;-82
2021/03/05 03:01:21;;;;;;;32.63;20.90;;;3.90;99.90;;;;;;5073867;28;20951;-82
2021/03/05 03:03:47;;;;;;;45.30;26.83;;;3.80;99.90;;;;;;5055743;28;20433;-81
2021/03/05 03:06:15;;;;;;;37.57;22.00;;;3.50;99.90;;;;;;5055442;28;20475;-82
2021/03/05 03:08:43;;;;;;;39.73;25.20;;;3.90;99.90;;;;;;5055587;28;20987;-82
2021/03/05 03:11:09;;;;;;;35.50;22.27;;;4.00;99.90;;;;;;5055555;28;20948;-82
2021/03/05 03:13:36;;;;;;;40.20;24.20;;;4.00;99.90;;;;;;5055623;28;20429;-82
2021/03/05 03:16:03;;;;;;;34.73;20.67;;;4.00;99.90;;;;;;5055341;28;20882;-82
2021/03/05 03:18:31;;;;;;;27.03;20.30;;;4.00;99.90;;;;;;5055329;28;20549;-82
2021/03/05 03:21:00;;;;;;;33.57;21.70;;;3.50;99.90;;;;;;5055330;28;20456;-82
2021/03/05 03:23:26;;;;;;;33.10;21.87;;;3.90;99.90;;;;;;5055463;28;20479;-82
2021/03/05 03:25:52;;;;;;;30.13;18.77;;;4.00;99.90;;;;;;5055396;28;20758;-82
2021/03/05 03:28:19;;;;;;;27.13;16.77;;;4.00;99.90;;;;;;5054574;28;20513;-82
2021/03/05 03:30:46;;;;;;;26.57;18.83;;;3.90;99.90;;;;;;5073247;28;20517;-81
2021/03/05 03:33:12;;;;;;;10.07;7.67;;;4.00;99.90;;;;;;5054991;28;20418;-82
2021/03/05 03:35:38;;;;;;;23.20;16.20;;;3.80;99.90;;;;;;5073043;28;20917;-81
2021/03/05 03:38:07;;;;;;;26.20;17.40;;;3.70;99.90;;;;;;5055542;28;20500;-81
2021/03/05 03:40:36;;;;;;;24.57;16.67;;;3.80;99.90;;;;;;5055307;28;20418;-82
2021/03/05 03:43:03;;;;;;;18.30;12.90;;;3.80;99.90;;;;;;5055059;28;20414;-82
2021/03/05 03:45:30;;;;;;;23.20;16.27;;;3.90;99.90;;;;;;5055008;28;20460;-82
2021/03/05 03:47:58;;;;;;;21.67;14.07;;;3.40;99.90;;;;;;5054747;28;20491;-81
2021/03/05 03:50:42;;;;;;;24.13;17.47;;;3.70;99.90;;;;;;5054704;28;20421;-82
2021/03/05 03:53:18;;;;;;;25.50;17.77;;;3.80;99.90;;;;;;5073253;28;20410;-82
2021/03/05 03:55:44;;;;;;;22.00;17.17;;;3.40;99.90;;;;;;5072705;28;20404;-82
2021/03/05 03:58:10;;;;;;;23.00;14.00;;;3.60;99.90;;;;;;5057513;28;20469;-81
2021/03/05 04:00:37;;;;;;;25.90;18.20;;;3.90;99.90;;;;;;5055096;28;20425;-81
2021/03/05 04:03:05;;;;;;;18.80;13.13;;;3.90;99.90;;;;;;5054141;28;20464;-82
2021/03/05 04:05:33;;;;;;;20.70;15.67;;;3.70;99.90;;;;;;5054557;28;20418;-81
2021/03/05 04:08:00;;;;;;;25.03;17.33;;;3.30;99.90;;;;;;5054475;28;20461;-81
2021/03/05 04:10:26;;;;;;;25.20;17.90;;;3.70;99.90;;;;;;5054528;28;20418;-82
2021/03/05 04:12:54;;;;;;;27.13;18.50;;;3.70;99.90;;;;;;5054164;28;20414;-81
2021/03/05 04:15:20;;;;;;;25.27;17.50;;;3.70;99.90;;;;;;5072477;28;20417;-81
2021/03/05 04:17:46;;;;;;;21.10;16.23;;;3.90;99.90;;;;;;5054214;28;20496;-82
2021/03/05 04:20:17;;;;;;;25.50;17.47;;;3.80;99.90;;;;;;5055918;28;20206;-81
2021/03/05 04:22:43;;;;;;;24.40;18.13;;;3.50;99.90;;;;;;5055470;28;20419;-81
2021/03/05 04:25:12;;;;;;;22.10;13.90;;;3.90;99.90;;;;;;5054057;28;20429;-82
2021/03/05 04:27:38;;;;;;;23.33;15.37;;;3.90;99.90;;;;;;5054493;28;20750;-82
2021/03/05 04:30:04;;;;;;;24.43;17.77;;;3.50;99.90;;;;;;5054178;28;20532;-81
2021/03/05 04:32:30;;;;;;;23.30;15.70;;;3.90;99.90;;;;;;5054336;28;20183;-82
2021/03/05 04:34:55;;;;;;;29.00;16.50;;;3.90;99.90;;;;;;5053932;28;20667;-82
2021/03/05 04:37:21;;;;;;;25.37;17.77;;;3.80;99.90;;;;;;5072000;28;20195;-82
2021/03/05 04:39:46;;;;;;;25.77;17.83;;;3.80;99.90;;;;;;5054227;28;20383;-82
2021/03/05 04:42:12;;;;;;;17.47;12.83;;;3.90;99.90;;;;;;5054138;28;20469;-82
2021/03/05 04:44:38;;;;;;;20.83;14.10;;;3.80;99.90;;;;;;5054129;28;20639;-82
2021/03/05 04:47:03;;;;;;;25.10;15.03;;;3.50;99.90;;;;;;5056579;28;20215;-82
2021/03/05 04:49:29;;;;;;;24.00;15.87;;;3.80;99.90;;;;;;5055859;28;20182;-81
2021/03/05 04:51:54;;;;;;;21.00;13.80;;;3.80;99.90;;;;;;5072972;28;20206;-83
2021/03/05 04:54:20;;;;;;;27.50;19.20;;;3.60;99.90;;;;;;5054568;28;20185;-83
2021/03/05 04:56:45;;;;;;;27.87;18.13;;;4.00;99.90;;;;;;5072012;28;20785;-83
2021/03/05 04:59:11;;;;;;;24.43;15.90;;;3.70;99.90;;;;;;5055963;28;20258;-82
2021/03/05 05:01:36;;;;;;;15.50;12.43;;;3.80;99.90;;;;;;5047421;28;20562;-82
2021/03/05 05:04:02;;;;;;;20.23;13.80;;;3.90;99.90;;;;;;5048120;28;20497;-81
2021/03/05 05:06:28;;;;;;;24.13;17.50;;;3.90;99.90;;;;;;5071465;28;20179;-81
2021/03/05 05:08:53;;;;;;;22.90;15.90;;;3.70;99.90;;;;;;5052777;28;20191;-81
2021/03/05 05:11:19;;;;;;;23.90;17.73;;;3.90;99.90;;;;;;5071001;28;20179;-81
2021/03/05 05:13:44;;;;;;;26.37;17.10;;;4.00;99.90;;;;;;5053081;28;20179;-83
2021/03/05 05:16:10;;;;;;;22.50;14.20;;;4.00;99.90;;;;;;5062399;28;20187;-81
2021/03/05 05:18:36;;;;;;;23.30;15.43;;;4.00;99.90;;;;;;5046525;28;20253;-82
2021/03/05 05:21:01;;;;;;;24.40;16.60;;;3.70;99.90;;;;;;5050950;28;20434;-82
2021/03/05 05:23:27;;;;;;;26.07;16.90;;;3.90;99.90;;;;;;5052974;28;20191;-80
2021/03/05 05:25:53;;;;;;;23.37;14.90;;;3.50;99.90;;;;;;5071991;28;20175;-82
2021/03/05 05:28:18;;;;;;;23.03;15.53;;;3.90;99.90;;;;;;5053010;28;20175;-82
2021/03/05 05:30:44;;;;;;;19.50;13.17;;;3.60;99.90;;;;;;5071051;28;20179;-81
2021/03/05 05:33:09;;;;;;;26.77;17.50;;;3.60;99.90;;;;;;5071275;28;20255;-82
2021/03/05 05:35:35;;;;;;;23.43;15.13;;;3.80;99.90;;;;;;5053498;28;20670;-82
2021/03/05 05:38:01;;;;;;;23.20;16.00;;;3.60;99.90;;;;;;5051879;28;20203;-83
2021/03/05 05:40:26;;;;;;;21.40;16.30;;;3.60;99.90;;;;;;5051127;28;20206;-81
2021/03/05 05:42:52;;;;;;;23.93;15.87;;;3.50;99.90;;;;;;5057678;28;20608;-80
2021/03/05 05:45:18;;;;;;;24.00;17.13;;;3.90;99.90;;;;;;5068690;28;20183;-81
2021/03/05 05:47:45;;;;;;;25.53;16.37;;;4.00;99.90;;;;;;5070418;28;20195;-79
2021/03/05 05:50:10;;;;;;;20.30;11.53;;;4.00;99.90;;;;;;5069019;28;20432;-81
2021/03/05 05:52:36;;;;;;;25.93;16.03;;;4.00;99.90;;;;;;5072619;28;20441;-80
2021/03/05 05:55:06;;;;;;;19.13;12.27;;;3.90;99.90;;;;;;5072415;28;20425;-81
2021/03/05 05:57:38;;;;;;;24.07;14.73;;;3.90;99.90;;;;;;5073812;28;20500;-81
2021/03/05 06:00:07;;;;;;;23.77;14.70;;;3.80;99.90;;;;;;5072362;28;20473;-82
2021/03/05 06:02:34;;;;;;;26.40;17.90;;;3.90;99.90;;;;;;5073786;28;20772;-80
2021/03/05 06:05:00;;;;;;;19.83;14.87;;;3.60;99.90;;;;;;5072988;28;20964;-81
2021/03/05 06:07:26;;;;;;;24.63;15.93;;;4.00;99.90;;;;;;5071711;28;20433;-82
2021/03/05 06:09:52;;;;;;;22.60;14.57;;;3.90;99.90;;;;;;5071980;28;20514;-82
2021/03/05 06:12:19;;;;;;;20.70;14.47;;;3.60;99.90;;;;;;5072728;28;20516;-82
2021/03/05 06:14:46;;;;;;;22.90;14.70;;;4.20;99.90;;;;;;5076423;28;20418;-82
2021/03/05 06:17:12;;;;;;;25.40;15.00;;;4.00;99.90;;;;;;5055717;28;20475;-82
2021/03/05 06:19:39;;;;;;;24.50;17.10;;;3.60;99.90;;;;;;5072755;28;20421;-81
2021/03/05 06:22:19;;;;;;;23.30;15.93;;;4.00;99.90;;;;;;5073750;28;20426;-82
2021/03/05 06:24:44;;;;;;;27.20;15.57;;;4.00;99.90;;;;;;5072974;28;20433;-81
2021/03/05 06:27:11;;;;;;;26.03;17.93;;;4.00;99.90;;;;;;5072947;28;20463;-82
2021/03/05 06:29:44;;;;;;;24.00;15.87;;;4.00;99.90;;;;;;5074079;28;20261;-80
2021/03/05 06:32:12;;;;;;;23.47;16.40;;;4.00;99.90;;;;;;5072085;28;20524;-81
2021/03/05 06:34:50;;;;;;;22.40;14.57;;;4.10;99.90;;;;;;5072095;28;20418;-82
2021/03/05 06:37:18;;;;;;;29.40;19.03;;;4.00;99.90;;;;;;5071819;28;20818;-82
2021/03/05 06:39:44;;;;;;;24.70;16.60;;;3.90;99.90;;;;;;5061446;28;20436;-83
2021/03/05 06:42:11;;;;;;;22.07;14.00;;;3.90;99.90;;;;;;5054964;28;20425;-82
2021/03/05 06:44:41;;;;;;;25.87;19.40;;;4.10;99.90;;;;;;5055856;28;20198;-81
2021/03/05 06:47:25;;;;;;;24.00;16.60;;;3.50;99.90;;;;;;5055008;28;20428;-80
2021/03/05 06:49:51;;;;;;;24.00;16.57;;;4.10;99.90;;;;;;5073307;28;20421;-81
2021/03/05 06:52:18;;;;;;;23.23;16.30;;;3.80;99.90;;;;;;5053802;28;20414;-82
2021/03/05 06:54:45;;;;;;;26.50;17.10;;;3.70;99.90;;;;;;5056856;28;20642;-82
2021/03/05 06:57:12;;;;;;;25.87;16.63;;;3.70;99.90;;;;;;5055194;28;20992;-83
2021/03/05 06:59:43;;;;;;;23.70;15.73;;;4.00;99.90;;;;;;5054752;28;20480;-82
2021/03/05 07:02:14;;;;;;;21.70;14.70;;;4.00;99.90;;;;;;5072201;28;20418;-81
2021/03/05 07:04:53;;;;;;;23.33;15.10;;;4.10;99.90;;;;;;5055102;28;20436;-81
2021/03/05 07:07:19;;;;;;;25.17;16.57;;;4.30;99.90;;;;;;5054969;28;20447;-80
2021/03/05 07:09:55;;;;;;;23.50;14.87;;;3.70;99.90;;;;;;5054744;28;20424;-84
2021/03/05 07:12:25;;;;;;;28.53;19.23;;;4.10;99.90;;;;;;5074729;28;20416;-82
2021/03/05 07:15:00;;;;;;;20.70;12.60;;;3.90;99.90;;;;;;5054716;28;20425;-82
2021/03/05 07:17:27;;;;;;;22.40;15.20;;;4.10;99.90;;;;;;5072524;28;20856;-80
2021/03/05 07:19:54;;;;;;;24.93;15.30;;;4.00;99.90;;;;;;5037928;28;20514;-81
2021/03/05 07:22:25;;;;;;;23.17;16.50;;;3.90;99.90;;;;;;5072101;28;20824;-81
2021/03/05 07:24:54;;;;;;;21.53;14.87;;;3.90;99.90;;;;;;5071242;28;20453;-81
2021/03/05 07:27:30;;;;;;;22.90;14.00;;;4.10;99.90;;;;;;5069809;28;20437;-81
2021/03/05 07:29:58;;;;;;;23.80;13.80;;;4.20;99.90;;;;;;5070175;28;20822;-82
2021/03/05 07:32:34;;;;;;;26.03;16.50;;;4.10;99.90;;;;;;5071054;28;20456;-81
2021/03/05 07:35:05;;;;;;;24.10;14.63;;;4.20;99.90;;;;;;5072965;28;20515;-82
2021/03/05 07:37:46;;;;;;;24.10;14.57;;;4.20;99.90;;;;;;5073059;28;20960;-81
2021/03/05 07:40:14;;;;;;;25.70;16.43;;;4.20;99.90;;;;;;5071967;28;20487;-82
2021/03/05 07:42:40;;;;;;;21.27;13.00;;;4.10;99.90;;;;;;5071088;28;20499;-82
2021/03/05 07:45:07;;;;;;;20.20;14.53;;;4.00;99.90;;;;;;5072195;28;20660;-82
2021/03/05 07:47:36;;;;;;;20.93;14.67;;;4.10;99.90;;;;;;5071541;28;20928;-82
2021/03/05 07:50:05;;;;;;;27.10;15.70;;;4.10;99.90;;;;;;5073414;28;20527;-82
2021/03/05 07:52:31;;;;;;;23.77;15.20;;;4.00;99.90;;;;;;5075194;28;20461;-80
2021/03/05 07:54:56;;;;;;;22.50;14.67;;;4.00;99.90;;;;;;5072208;28;20442;-82
2021/03/05 07:57:22;;;;;;;24.10;17.67;;;4.10;99.90;;;;;;5071765;28;20825;-80
2021/03/05 07:59:50;;;;;;;19.77;13.97;;;3.70;99.90;;;;;;5071235;28;20582;-81
2021/03/05 08:02:21;;;;;;;17.73;13.33;;;4.10;99.90;;;;;;5072732;28;20172;-80
2021/03/05 08:04:53;;;;;;;24.03;14.10;;;4.00;99.90;;;;;;5072720;28;20433;-81
2021/03/05 08:07:27;;;;;;;20.43;14.43;;;3.60;99.90;;;;;;5071885;28;20425;-80
2021/03/05 08:09:53;;;;;;;20.10;12.47;;;4.20;99.90;;;;;;5073152;28;20889;-80
2021/03/05 08:12:28;;;;;;;12.03;9.50;;;4.00;99.90;;;;;;5071719;28;20425;-81
2021/03/05 08:15:09;;;;;;;18.87;11.97;;;4.00;99.90;;;;;;5071429;28;20470;-82
2021/03/05 08:17:38;;;;;;;15.90;12.20;;;4.10;99.90;;;;;;5071131;28;20551;-82
2021/03/05 08:20:05;;;;;;;20.87;13.33;;;3.50;99.90;;;;;;5073443;28;20480;-82
2021/03/05 08:22:31;;;;;;;14.40;7.83;;;3.90;99.90;;;;;;5074600;28;20402;-81
2021/03/05 08:25:23;;;;;;;19.23;12.07;;;3.80;99.90;;;;;;5071528;28;20417;-82
2021/03/05 08:27:49;;;;;;;15.53;11.40;;;4.20;99.90;;;;;;5073649;28;20466;-85
2021/03/05 08:30:35;;;;;;;16.00;11.63;;;4.10;99.90;;;;;;5071751;28;20426;-82
2021/03/05 08:33:04;;;;;;;14.10;10.40;;;4.20;99.90;;;;;;5057526;28;20187;-82
2021/03/05 08:35:30;;;;;;;13.83;9.73;;;4.40;99.90;;;;;;5073440;28;20520;-82
2021/03/05 08:38:17;;;;;;;21.70;12.97;;;4.20;99.90;;;;;;5073651;28;20527;-82
2021/03/05 08:40:55;;;;;;;17.93;11.27;;;4.20;99.90;;;;;;5070244;28;20642;-81
2021/03/05 08:43:27;;;;;;;18.50;12.90;;;3.90;99.90;;;;;;5052793;28;20403;-82
2021/03/05 08:46:03;;;;;;;16.60;10.93;;;3.90;99.90;;;;;;5035363;28;20557;-80
2021/03/05 08:48:37;;;;;;;19.13;11.00;;;4.30;99.90;;;;;;5051828;28;20406;-81
2021/03/05 08:51:13;;;;;;;18.93;11.90;;;4.00;99.90;;;;;;5034014;28;20483;-82
2021/03/05 08:53:47;;;;;;;15.10;11.17;;;4.30;99.90;;;;;;5033947;28;20433;-81
2021/03/05 08:56:18;;;;;;;17.80;11.20;;;4.60;99.90;;;;;;5052296;28;20495;-81
2021/03/05 08:58:44;;;;;;;16.33;11.87;;;4.50;99.90;;;;;;5035291;28;20470;-80
2021/03/05 09:01:46;;;;;;;15.13;11.50;;;4.40;99.90;;;;;;5034600;28;20426;-80
2021/03/05 09:04:14;;;;;;;15.07;12.07;;;4.50;99.90;;;;;;5051125;28;20430;-82
2021/03/05 09:06:46;;;;;;;16.90;11.83;;;4.50;99.90;;;;;;5034214;28;20426;-82
2021/03/05 09:09:12;;;;;;;17.37;13.13;;;4.50;99.90;;;;;;5051450;28;20407;-82
2021/03/05 09:11:38;;;;;;;18.33;11.63;;;4.50;99.90;;;;;;5051740;28;20417;-78
2021/03/05 09:14:20;;;;;;;15.80;12.47;;;4.30;99.90;;;;;;5052146;28;20845;-82
2021/03/05 09:17:07;;;;;;;20.67;13.50;;;4.60;99.90;;;;;;5033529;28;20274;-82
2021/03/05 09:19:43;;;;;;;16.57;12.63;;;4.60;99.90;;;;;;5051991;28;20430;-82
2021/03/05 09:22:16;;;;;;;16.63;12.67;;;4.60;99.90;;;;;;5034357;28;20426;-82
2021/03/05 09:24:59;;;;;;;18.83;11.67;;;4.60;99.90;;;;;;5052090;28;20418;-80
2021/03/05 09:27:36;;;;;;;16.43;12.93;;;4.70;99.90;;;;;;5037496;28;20437;-80
2021/03/05 09:30:22;;;;;;;21.23;13.67;;;4.80;99.90;;;;;;5055937;28;20410;-82
2021/03/05 09:32:53;;;;;;;17.07;11.90;;;5.00;99.90;;;;;;5037826;28;20429;-83
2021/03/05 09:35:29;;;;;;;18.53;13.47;;;5.00;99.90;;;;;;5037614;28;20505;-82
2021/03/05 09:37:55;;;;;;;15.87;11.13;;;4.90;99.90;;;;;;5037730;28;20509;-82
2021/03/05 09:40:23;;;;;;;15.00;10.37;;;4.90;99.90;;;;;;5037592;28;20450;-82
2021/03/05 09:42:52;;;;;;;17.13;12.30;;;5.00;99.90;;;;;;5037330;28;20406;-82
2021/03/05 09:45:52;;;;;;;19.40;12.10;;;4.90;99.90;;;;;;5037199;28;20419;-83
2021/03/05 09:48:29;;;;;;;17.10;11.50;;;4.90;99.90;;;;;;5041468;28;20418;-82
2021/03/05 09:50:57;;;;;;;15.83;11.60;;;5.00;99.90;;;;;;5044978;28;21007;-82
2021/03/05 09:53:31;;;;;;;15.13;10.80;;;4.90;99.90;;;;;;5038061;28;20747;-81
2021/03/05 09:56:05;;;;;;;16.80;10.97;;;4.90;99.90;;;;;;5037957;28;20418;-79
2021/03/05 09:58:31;;;;;;;16.53;12.27;;;4.90;99.90;;;;;;5055528;28;20481;-82
2021/03/05 10:00:57;;;;;;;18.13;12.13;;;4.70;99.90;;;;;;5037022;28;20421;-82
2021/03/05 10:03:24;;;;;;;17.30;12.20;;;4.70;99.90;;;;;;5036889;28;20535;-82
2021/03/05 10:05:50;;;;;;;15.47;11.13;;;4.80;99.90;;;;;;5039086;28;20442;-79
2021/03/05 10:08:27;;;;;;;20.93;13.07;;;4.80;99.90;;;;;;5072373;28;20468;-82
2021/03/05 10:11:03;;;;;;;15.43;10.13;;;4.90;99.90;;;;;;5056748;28;20409;-82
2021/03/05 10:13:52;;;;;;;21.77;12.97;;;4.80;99.90;;;;;;5057492;28;20482;-81
2021/03/05 10:16:28;;;;;;;18.47;12.10;;;5.00;99.90;;;;;;5057505;28;20425;-82
2021/03/05 10:18:56;;;;;;;18.23;10.50;;;4.80;99.90;;;;;;5056590;28;20468;-81
2021/03/05 10:21:23;;;;;;;12.93;9.17;;;4.80;99.90;;;;;;5074812;28;20920;-82
2021/03/05 10:23:49;;;;;;;17.30;12.57;;;5.00;99.90;;;;;;5056034;28;20437;-82
2021/03/05 10:26:21;;;;;;;16.87;12.50;;;4.80;99.90;;;;;;5056560;28;20418;-82
2021/03/05 10:28:52;;;;;;;16.40;13.00;;;4.90;99.90;;;;;;5074476;28;20416;-82
2021/03/05 10:31:19;;;;;;;21.87;12.07;;;5.10;99.90;;;;;;5074200;28;20501;-81
2021/03/05 10:33:45;;;;;;;17.70;11.77;;;5.20;99.90;;;;;;5050579;28;20430;-82
2021/03/05 10:36:13;;;;;;;15.37;11.80;;;5.30;99.90;;;;;;5067253;28;20980;-81
2021/03/05 10:38:40;;;;;;;19.20;13.90;;;5.30;99.90;;;;;;5035875;28;21190;-81
2021/03/05 10:41:07;;;;;;;17.83;13.63;;;5.30;99.90;;;;;;5064497;28;20414;-81
2021/03/05 10:43:41;;;;;;;19.00;13.03;;;5.30;99.90;;;;;;5055014;28;21009;-81
2021/03/05 10:46:08;;;;;;;17.80;12.40;;;5.30;99.90;;;;;;5072652;28;20976;-82
2021/03/05 10:48:34;;;;;;;17.10;12.60;;;5.20;99.90;;;;;;5072354;28;20457;-82
2021/03/05 10:50:59;;;;;;;17.43;11.67;;;5.10;99.90;;;;;;5073257;28;20509;-81
2021/03/05 10:53:25;;;;;;;17.33;12.50;;;5.20;99.90;;;;;;5072733;28;20171;-82
2021/03/05 10:55:51;;;;;;;16.77;12.47;;;5.20;99.90;;;;;;5073762;28;20175;-82
2021/03/05 10:58:18;;;;;;;22.50;12.40;;;5.10;99.90;;;;;;5072157;28;20238;-82
2021/03/05 11:00:44;;;;;;;19.57;13.93;;;5.10;99.90;;;;;;5073624;28;20171;-82
2021/03/05 11:03:09;;;;;;;16.70;12.00;;;5.20;99.90;;;;;;5073690;28;20417;-82
2021/03/05 11:05:35;;;;;;;17.93;12.67;;;5.30;99.90;;;;;;5072569;28;20226;-82
2021/03/05 11:08:00;;;;;;;14.70;11.83;;;5.30;99.90;;;;;;5074302;28;20288;-82
2021/03/05 11:10:26;;;;;;;19.37;11.00;;;5.40;99.90;;;;;;5078427;28;20254;-82
2021/03/05 11:12:51;;;;;;;17.67;12.87;;;5.20;99.90;;;;;;5075413;28;20179;-81
2021/03/05 11:15:18;;;;;;;15.53;12.17;;;5.10;99.90;;;;;;5076741;28;20175;-82
2021/03/05 11:17:45;;;;;;;14.10;11.00;;;5.10;99.90;;;;;;5057196;28;20204;-81
2021/03/05 11:20:11;;;;;;;20.33;13.37;;;5.20;99.90;;;;;;5056268;28;20422;-81
2021/03/05 11:22:37;;;;;;;17.20;11.37;;;5.40;99.90;;;;;;5064725;28;20939;-81
2021/03/05 11:25:05;;;;;;;18.97;12.53;;;5.40;99.90;;;;;;5064630;28;20471;-82
2021/03/05 11:27:34;;;;;;;31.43;14.30;;;5.50;99.90;;;;;;5072087;28;20414;-82
2021/03/05 11:29:59;;;;;;;28.33;13.80;;;5.50;99.90;;;;;;5054071;28;20921;-82
2021/03/05 11:32:25;;;;;;;16.70;11.13;;;5.40;99.90;;;;;;5072062;28;20424;-82
2021/03/05 11:34:51;;;;;;;20.20;13.37;;;5.30;99.90;;;;;;5058489;28;20258;-82
2021/03/05 11:37:17;;;;;;;16.13;11.77;;;5.30;99.90;;;;;;5063933;28;20222;-81
2021/03/05 11:39:43;;;;;;;17.40;11.93;;;5.30;99.90;;;;;;5072913;28;20178;-81
2021/03/05 11:42:08;;;;;;;24.00;15.27;;;5.40;99.90;;;;;;5057135;28;20437;-82
2021/03/05 11:44:34;;;;;;;15.30;10.50;;;5.20;99.90;;;;;;5072031;28;20535;-81
2021/03/05 11:46:59;;;;;;;15.20;11.43;;;5.30;99.90;;;;;;5072841;28;20175;-81
2021/03/05 11:49:25;;;;;;;32.43;14.60;;;5.30;99.90;;;;;;5073104;28;20189;-83
2021/03/05 11:51:51;;;;;;;24.37;13.47;;;5.40;99.90;;;;;;5054842;28;20211;-82
2021/03/05 11:54:16;;;;;;;19.73;12.03;;;5.40;99.90;;;;;;5054845;28;20175;-82
2021/03/05 11:56:42;;;;;;;20.77;12.93;;;5.40;99.90;;;;;;5055064;28;20178;-80
2021/03/05 11:59:08;;;;;;;20.90;13.93;;;5.40;99.90;;;;;;5051449;28;20235;-83
2021/03/05 12:01:33;;;;;;;20.17;13.07;;;5.70;99.90;;;;;;5050957;28;20182;-82
2021/03/05 12:03:59;;;;;;;21.23;11.60;;;5.70;99.90;;;;;;5052625;28;20627;-81
2021/03/05 12:06:27;;;;;;;16.67;10.33;;;5.70;99.90;;;;;;5051498;28;20195;-83
2021/03/05 12:08:54;;;;;;;42.63;14.40;;;5.40;99.90;;;;;;5051619;28;20179;-82
2021/03/05 12:11:28;;;;;;;23.27;11.40;;;5.40;99.90;;;;;;5052535;28;20429;-91
2021/03/05 12:13:54;;;;;;;24.00;12.17;;;5.50;99.90;;;;;;5052483;28;20410;-82
2021/03/05 12:16:19;;;;;;;20.27;10.97;;;5.50;99.90;;;;;;5052087;28;20825;-81
2021/03/05 12:18:45;;;;;;;29.87;16.00;;;5.70;99.90;;;;;;5051899;28;20212;-81
2021/03/05 12:21:10;;;;;;;19.30;12.03;;;5.80;99.90;;;;;;5049199;28;20932;-80
2021/03/05 12:23:36;;;;;;;23.73;12.10;;;5.80;99.90;;;;;;5047417;28;20183;-81
2021/03/05 12:26:02;;;;;;;15.73;11.20;;;5.80;99.90;;;;;;5051519;28;20178;-81
2021/03/05 12:28:27;;;;;;;18.83;11.17;;;5.70;99.90;;;;;;5051027;28;20175;-81
2021/03/05 12:30:53;;;;;;;18.50;11.93;;;5.70;99.90;;;;;;5050905;28;20700;-80
2021/03/05 12:33:18;;;;;;;16.80;11.53;;;5.70;99.90;;;;;;5051026;28;20179;-81
2021/03/05 12:35:44;;;;;;;31.60;12.30;;;5.60;99.90;;;;;;5052585;28;20175;-83
2021/03/05 12:38:09;;;;;;;17.30;12.90;;;5.70;99.90;;;;;;5051027;28;20302;-80
2021/03/05 12:40:36;;;;;;;18.93;10.80;;;5.80;99.90;;;;;;5050720;28;20517;-81
2021/03/05 12:43:02;;;;;;;22.93;11.17;;;5.80;99.90;;;;;;5050534;28;20758;-81
2021/03/05 12:45:28;;;;;;;14.97;10.80;;;5.80;99.90;;;;;;5051905;28;20414;-80
2021/03/05 12:47:53;;;;;;;16.10;11.17;;;5.90;99.90;;;;;;5050721;28;20552;-81